Time;durP1;ratioP1;P1;durP2;ratioP2;P2;SDS_P1;SDS_P2;PMS_P1;PMS_P2;Temp;Humidity;BMP_temperature;BMP_pressure;BME280_temperature;BME280_humidity;BME280_pressure;Samples;Min_cycle;Max_cycle;Signal;HPM_P1;HPM_P2
2024/03/20 00:01:03;;;;;;;3.00;2.10;;;23.00;71.40;;;;;;5010231;28;21201;-72
2024/03/20 00:03:30;;;;;;;1.60;1.50;;;22.90;71.30;;;;;;5012802;28;20459;-72
2024/03/20 00:05:57;;;;;;;2.00;1.50;;;22.90;71.40;;;;;;5004859;28;21180;-71
2024/03/20 00:08:25;;;;;;;2.20;1.83;;;22.90;71.50;;;;;;5003294;28;20459;-73
2024/03/20 00:10:52;;;;;;;1.60;1.50;;;22.80;71.50;;;;;;5007636;28;20499;-67
2024/03/20 00:13:19;;;;;;;1.90;1.40;;;22.80;71.60;;;;;;5011939;28;20481;-69
2024/03/20 00:15:46;;;;;;;2.43;2.03;;;22.80;71.70;;;;;;5010027;28;20946;-67
2024/03/20 00:18:14;;;;;;;2.10;1.83;;;22.70;71.60;;;;;;5009400;28;21012;-71
2024/03/20 00:20:41;;;;;;;2.10;1.43;;;22.70;71.70;;;;;;5006981;28;20957;-69
2024/03/20 00:23:08;;;;;;;2.53;1.80;;;22.70;71.90;;;;;;5008896;28;20546;-70
2024/03/20 00:25:36;;;;;;;2.50;2.30;;;22.70;72.00;;;;;;5009508;28;20549;-69
2024/03/20 00:28:02;;;;;;;2.20;2.00;;;22.60;72.00;;;;;;5006238;28;20458;-69
2024/03/20 00:30:29;;;;;;;2.30;2.10;;;22.60;72.10;;;;;;5006923;28;20470;-72
2024/03/20 00:32:56;;;;;;;2.67;2.00;;;22.50;72.20;;;;;;5007491;28;20455;-69
2024/03/20 00:35:22;;;;;;;2.43;1.80;;;22.50;72.30;;;;;;5009173;28;20502;-70
2024/03/20 00:37:49;;;;;;;1.93;1.37;;;22.50;72.50;;;;;;5006954;28;20465;-66
2024/03/20 00:40:16;;;;;;;2.33;2.13;;;22.40;72.60;;;;;;5010867;28;20937;-71
2024/03/20 00:42:45;;;;;;;1.53;1.43;;;22.40;72.70;;;;;;5010345;28;20964;-66
2024/03/20 00:45:12;;;;;;;2.73;2.00;;;22.30;72.80;;;;;;5009358;28;20526;-71
2024/03/20 00:47:38;;;;;;;2.10;1.37;;;22.30;73.00;;;;;;5008751;28;20911;-66
2024/03/20 00:50:06;;;;;;;1.93;1.70;;;22.30;73.00;;;;;;5009676;28;20462;-70
2024/03/20 00:52:33;;;;;;;2.00;1.73;;;22.20;72.90;;;;;;5010099;28;20977;-69
2024/03/20 00:54:59;;;;;;;2.47;1.73;;;22.20;73.00;;;;;;5010349;28;20489;-70
2024/03/20 00:57:26;;;;;;;1.90;1.53;;;22.20;73.20;;;;;;5012215;28;20462;-66
2024/03/20 00:59:55;;;;;;;1.70;1.60;;;22.10;73.20;;;;;;5011153;28;20950;-68
2024/03/20 01:02:21;;;;;;;2.17;1.43;;;22.10;73.40;;;;;;5008280;28;20494;-68
2024/03/20 01:04:48;;;;;;;1.60;1.50;;;22.10;73.50;;;;;;5009238;28;20462;-69
2024/03/20 01:07:15;;;;;;;1.90;1.63;;;22.00;73.50;;;;;;5009505;28;20466;-68
2024/03/20 01:09:41;;;;;;;2.57;1.87;;;22.10;73.80;;;;;;5007964;28;20454;-70
2024/03/20 01:12:08;;;;;;;2.03;1.80;;;22.00;73.80;;;;;;5008984;28;20950;-67
2024/03/20 01:14:35;;;;;;;1.67;1.57;;;21.90;73.90;;;;;;5007183;28;20481;-69
2024/03/20 01:17:04;;;;;;;2.23;1.37;;;21.90;74.00;;;;;;5007755;28;20783;-70
2024/03/20 01:19:31;;;;;;;1.67;1.57;;;21.90;74.20;;;;;;5008566;28;20470;-67
2024/03/20 01:21:57;;;;;;;2.73;1.30;;;21.80;74.20;;;;;;5006903;28;20455;-70
2024/03/20 01:24:24;;;;;;;2.03;1.50;;;21.80;74.50;;;;;;5009834;28;20873;-65
2024/03/20 01:26:51;;;;;;;2.00;1.50;;;21.70;74.40;;;;;;5005831;28;20478;-69
2024/03/20 01:29:18;;;;;;;2.40;2.13;;;21.70;74.80;;;;;;5006852;28;20819;-68
2024/03/20 01:31:45;;;;;;;1.87;1.70;;;21.70;74.80;;;;;;5008087;28;20458;-71
2024/03/20 01:34:13;;;;;;;1.73;1.50;;;21.70;74.80;;;;;;5000988;28;20470;-70
2024/03/20 01:36:39;;;;;;;2.37;1.80;;;21.70;74.90;;;;;;5006381;28;20528;-69
2024/03/20 01:39:06;;;;;;;1.70;1.60;;;21.60;74.90;;;;;;5005405;28;20470;-68
2024/03/20 01:41:33;;;;;;;1.53;1.27;;;21.60;75.00;;;;;;5008563;28;20453;-68
2024/03/20 01:44:00;;;;;;;2.08;1.75;;;21.60;75.10;;;;;;5008727;28;20962;-70
2024/03/20 01:46:31;;;;;;;1.90;1.67;;;21.60;75.20;;;;;;5007404;28;20894;-67
2024/03/20 01:48:57;;;;;;;1.88;1.50;;;21.50;75.30;;;;;;5007273;28;20203;-70
2024/03/20 01:51:26;;;;;;;2.00;1.65;;;21.50;75.40;;;;;;5006161;28;20291;-69
2024/03/20 01:53:54;;;;;;;2.00;1.55;;;21.50;75.50;;;;;;5007123;28;20315;-70
2024/03/20 01:56:21;;;;;;;1.87;1.77;;;21.40;75.60;;;;;;5006838;28;20215;-70
2024/03/20 01:58:47;;;;;;;1.60;1.40;;;21.40;76.50;;;;;;5006822;28;21295;-66
2024/03/20 02:01:14;;;;;;;2.30;1.85;;;21.40;75.90;;;;;;5006401;28;20235;-70
2024/03/20 02:03:42;;;;;;;2.17;1.85;;;21.30;75.90;;;;;;5005410;28;20196;-67
2024/03/20 02:06:20;;;;;;;1.95;1.50;;;21.30;76.00;;;;;;5006867;28;20199;-65
2024/03/20 02:08:48;;;;;;;2.10;1.77;;;21.30;76.30;;;;;;5007418;28;20204;-68
2024/03/20 02:11:15;;;;;;;1.58;1.30;;;21.20;76.30;;;;;;5008400;28;20491;-68
2024/03/20 02:13:44;;;;;;;1.88;1.70;;;21.20;76.40;;;;;;5007693;28;20196;-66
2024/03/20 02:16:11;;;;;;;1.83;1.48;;;21.20;76.60;;;;;;5008331;28;20314;-64
2024/03/20 02:18:38;;;;;;;1.55;1.40;;;21.20;76.80;;;;;;5010227;28;20227;-71
2024/03/20 02:21:08;;;;;;;2.47;1.48;;;21.10;76.80;;;;;;5010135;28;21111;-68
2024/03/20 02:23:34;;;;;;;2.85;1.67;;;21.10;77.00;;;;;;5005561;28;20747;-66
2024/03/20 02:26:01;;;;;;;1.50;1.30;;;21.10;77.10;;;;;;5007498;28;20210;-68
2024/03/20 02:28:28;;;;;;;2.47;2.28;;;21.00;77.20;;;;;;5008558;28;20195;-68
2024/03/20 02:30:55;;;;;;;2.30;1.60;;;21.00;77.30;;;;;;5008753;28;20196;-69
2024/03/20 02:33:21;;;;;;;1.50;1.40;;;21.00;77.50;;;;;;5006628;28;20449;-66
2024/03/20 02:35:48;;;;;;;1.50;1.40;;;20.90;77.50;;;;;;5008018;28;21122;-67
2024/03/20 02:38:16;;;;;;;2.25;1.73;;;20.90;77.70;;;;;;5007333;28;20218;-71
2024/03/20 02:40:43;;;;;;;2.30;1.75;;;20.90;77.80;;;;;;5006325;28;20517;-71
2024/03/20 02:43:09;;;;;;;2.10;1.88;;;20.90;78.00;;;;;;5006671;28;20917;-70
2024/03/20 02:45:36;;;;;;;1.75;1.45;;;20.90;78.10;;;;;;5007380;28;20187;-67
2024/03/20 02:48:04;;;;;;;3.28;2.03;;;20.80;78.20;;;;;;5007647;28;20204;-70
2024/03/20 02:50:31;;;;;;;1.70;1.60;;;20.80;78.40;;;;;;5008610;28;20203;-71
2024/03/20 02:53:04;;;;;;;1.80;1.60;;;20.80;78.50;;;;;;5000823;28;20203;-71
2024/03/20 02:55:32;;;;;;;1.77;1.30;;;20.70;78.60;;;;;;5008007;28;20318;-70
2024/03/20 02:57:58;;;;;;;1.90;1.60;;;20.70;78.80;;;;;;5013285;28;20238;-71
2024/03/20 03:00:26;;;;;;;1.55;1.45;;;20.70;78.90;;;;;;5013213;28;20200;-64
2024/03/20 03:02:53;;;;;;;1.40;1.30;;;20.60;78.90;;;;;;5010986;28;20203;-67
2024/03/20 03:05:20;;;;;;;1.88;1.70;;;20.60;79.00;;;;;;5011936;28;20254;-68
2024/03/20 03:07:47;;;;;;;1.67;1.50;;;20.60;79.20;;;;;;5015079;28;20661;-69
2024/03/20 03:10:15;;;;;;;2.15;1.77;;;20.60;79.30;;;;;;5017110;28;20210;-67
2024/03/20 03:12:44;;;;;;;2.20;1.60;;;20.60;79.50;;;;;;5017220;28;20195;-66
2024/03/20 03:15:11;;;;;;;2.53;2.03;;;20.50;79.50;;;;;;5014197;28;20698;-67
2024/03/20 03:17:38;;;;;;;1.90;1.70;;;20.50;79.60;;;;;;5015782;28;20197;-68
2024/03/20 03:20:13;;;;;;;1.60;1.20;;;20.50;79.70;;;;;;5017195;28;20196;-66
2024/03/20 03:22:40;;;;;;;1.80;1.40;;;20.50;79.80;;;;;;5009617;28;20215;-64
2024/03/20 03:25:08;;;;;;;2.10;1.90;;;20.40;80.00;;;;;;5013267;28;20204;-69
2024/03/20 03:27:35;;;;;;;2.05;1.85;;;20.40;80.10;;;;;;5013981;28;20204;-69
2024/03/20 03:30:04;;;;;;;2.40;2.20;;;20.40;80.10;;;;;;5015685;28;20215;-65
2024/03/20 03:32:31;;;;;;;1.65;1.52;;;20.40;80.30;;;;;;5015326;28;20203;-70
2024/03/20 03:34:58;;;;;;;1.80;1.58;;;20.40;80.40;;;;;;5014155;28;20228;-71
2024/03/20 03:37:25;;;;;;;1.55;1.40;;;20.40;80.40;;;;;;5012725;28;21154;-70
2024/03/20 03:39:52;;;;;;;1.98;1.77;;;20.30;80.50;;;;;;5012077;28;20215;-70
2024/03/20 03:42:20;;;;;;;1.85;1.70;;;20.30;80.60;;;;;;5014943;28;20210;-66
2024/03/20 03:44:47;;;;;;;1.90;1.48;;;20.30;80.80;;;;;;5004095;28;20195;-68
2024/03/20 03:47:15;;;;;;;1.65;1.55;;;20.30;80.90;;;;;;5006089;28;20203;-68
2024/03/20 03:49:42;;;;;;;1.55;1.10;;;20.20;80.80;;;;;;5008772;28;20223;-70
2024/03/20 03:52:08;;;;;;;1.55;1.42;;;20.20;80.90;;;;;;5005873;28;20208;-68
2024/03/20 03:54:35;;;;;;;1.38;1.25;;;20.20;81.00;;;;;;5007078;28;20216;-67
2024/03/20 03:57:02;;;;;;;1.73;1.63;;;20.20;81.20;;;;;;5007543;28;21127;-69
2024/03/20 03:59:29;;;;;;;2.30;1.65;;;20.20;81.20;;;;;;5009823;28;20200;-65
2024/03/20 04:01:55;;;;;;;2.13;1.92;;;20.20;81.30;;;;;;5010368;28;20232;-65
2024/03/20 04:04:23;;;;;;;1.55;1.42;;;20.10;81.30;;;;;;5008027;28;20203;-66
2024/03/20 04:06:50;;;;;;;2.30;1.85;;;20.20;81.70;;;;;;5007648;28;20208;-70
2024/03/20 04:09:17;;;;;;;1.73;1.45;;;20.10;81.60;;;;;;5005977;28;20212;-70
2024/03/20 04:11:43;;;;;;;1.80;1.65;;;20.10;81.70;;;;;;5009293;28;20660;-69
2024/03/20 04:14:11;;;;;;;2.25;1.60;;;20.10;81.80;;;;;;5011697;28;20211;-67
2024/03/20 04:16:38;;;;;;;1.60;1.50;;;20.00;81.80;;;;;;5012644;28;20884;-69
2024/03/20 04:19:06;;;;;;;1.40;1.30;;;20.00;82.00;;;;;;5011170;28;20204;-70
2024/03/20 04:21:34;;;;;;;1.60;1.50;;;20.00;82.10;;;;;;5013611;28;20195;-66
2024/03/20 04:24:01;;;;;;;2.08;1.88;;;20.00;82.20;;;;;;5012553;28;20632;-67
2024/03/20 04:26:28;;;;;;;2.08;1.65;;;19.90;82.20;;;;;;5010525;28;20200;-70
2024/03/20 04:28:54;;;;;;;1.80;1.23;;;19.90;82.30;;;;;;5010627;28;20196;-67
2024/03/20 04:31:21;;;;;;;1.95;1.85;;;19.90;82.50;;;;;;5013248;28;20199;-68
2024/03/20 04:33:48;;;;;;;2.05;1.75;;;19.90;82.60;;;;;;5011246;28;20230;-70
2024/03/20 04:36:15;;;;;;;1.77;1.52;;;19.90;82.70;;;;;;5010560;28;20568;-65
2024/03/20 04:38:43;;;;;;;1.30;1.20;;;19.90;82.80;;;;;;5011108;28;20199;-72
2024/03/20 04:41:10;;;;;;;2.63;2.08;;;19.80;82.80;;;;;;5011174;28;20218;-68
2024/03/20 04:43:37;;;;;;;1.77;1.58;;;19.80;83.10;;;;;;5010740;28;20200;-71
2024/03/20 04:46:04;;;;;;;1.60;1.50;;;19.80;83.60;;;;;;5009848;28;20195;-69
2024/03/20 04:48:31;;;;;;;1.45;1.35;;;19.80;83.80;;;;;;5010242;28;20204;-68
2024/03/20 04:50:58;;;;;;;1.80;1.50;;;19.80;83.70;;;;;;5008449;28;20199;-70
2024/03/20 04:53:25;;;;;;;1.50;1.40;;;19.80;83.80;;;;;;5011037;28;20203;-67
2024/03/20 04:55:53;;;;;;;1.50;1.40;;;19.70;83.70;;;;;;5012406;28;20219;-69
2024/03/20 04:58:20;;;;;;;1.67;1.58;;;19.70;83.80;;;;;;5011364;28;20199;-66
2024/03/20 05:00:46;;;;;;;1.83;1.60;;;19.70;83.90;;;;;;5011140;28;20195;-70
2024/03/20 05:03:13;;;;;;;1.90;1.67;;;19.70;84.10;;;;;;5006892;28;20208;-70
2024/03/20 05:05:41;;;;;;;1.63;1.45;;;19.70;84.20;;;;;;5012210;28;20196;-69
2024/03/20 05:08:08;;;;;;;1.63;1.20;;;19.60;84.20;;;;;;5011707;28;20204;-69
2024/03/20 05:10:34;;;;;;;1.85;1.75;;;19.60;84.30;;;;;;5007115;28;20642;-69
2024/03/20 05:13:02;;;;;;;2.10;1.90;;;19.60;84.40;;;;;;5008632;28;20258;-67
2024/03/20 05:15:28;;;;;;;1.80;1.50;;;19.60;84.50;;;;;;5005200;28;20230;-66
2024/03/20 05:17:55;;;;;;;1.40;1.30;;;19.60;84.70;;;;;;5011671;28;20195;-66
2024/03/20 05:20:20;;;;;;;1.42;1.30;;;19.50;84.70;;;;;;5015502;28;20208;-69
2024/03/20 05:22:47;;;;;;;2.37;1.60;;;19.60;84.90;;;;;;5015635;28;20203;-70
2024/03/20 05:25:13;;;;;;;1.38;1.20;;;19.60;84.90;;;;;;5015410;28;20211;-65
2024/03/20 05:27:40;;;;;;;1.33;1.20;;;19.50;84.80;;;;;;5014004;28;20769;-69
2024/03/20 05:30:09;;;;;;;1.40;1.20;;;19.50;85.00;;;;;;5013110;28;20200;-69
2024/03/20 05:32:35;;;;;;;1.60;1.50;;;19.50;85.10;;;;;;5009183;28;20314;-67
2024/03/20 05:35:01;;;;;;;1.50;1.40;;;19.50;85.20;;;;;;5011844;28;20224;-70
2024/03/20 05:37:28;;;;;;;1.90;1.70;;;19.50;85.20;;;;;;5014184;28;20194;-66
2024/03/20 05:39:53;;;;;;;2.58;1.83;;;19.50;85.30;;;;;;5008445;28;20719;-71
2024/03/20 05:42:20;;;;;;;1.47;1.30;;;19.40;85.30;;;;;;5011019;28;20208;-64
2024/03/20 05:44:46;;;;;;;1.70;1.20;;;19.40;85.40;;;;;;5011362;28;20227;-68
2024/03/20 05:47:14;;;;;;;1.60;1.40;;;19.40;85.40;;;;;;5005526;28;20234;-70
2024/03/20 05:49:43;;;;;;;2.90;1.65;;;19.40;85.50;;;;;;5012441;28;20195;-69
2024/03/20 05:52:10;;;;;;;1.30;1.10;;;19.40;85.60;;;;;;5006494;28;20207;-70
2024/03/20 05:54:35;;;;;;;1.40;1.30;;;19.40;85.70;;;;;;5010872;28;20777;-65
2024/03/20 05:57:02;;;;;;;1.87;1.40;;;19.40;85.70;;;;;;5009533;28;20215;-69
2024/03/20 05:59:28;;;;;;;2.45;2.25;;;19.40;85.80;;;;;;5011075;28;20207;-68
2024/03/20 06:01:54;;;;;;;1.40;1.20;;;19.40;85.80;;;;;;5008781;28;20563;-68
2024/03/20 06:04:21;;;;;;;1.73;1.63;;;19.30;85.80;;;;;;5006587;28;20557;-65
2024/03/20 06:06:48;;;;;;;2.13;1.42;;;19.30;85.90;;;;;;5008669;28;20632;-67
2024/03/20 06:09:14;;;;;;;1.70;1.33;;;19.30;86.00;;;;;;5006506;28;20208;-72
2024/03/20 06:11:42;;;;;;;2.10;1.40;;;19.30;86.00;;;;;;5005708;28;20656;-72
2024/03/20 06:14:07;;;;;;;1.45;1.27;;;19.30;86.00;;;;;;5012336;28;20214;-67
2024/03/20 06:16:34;;;;;;;1.93;1.73;;;19.30;86.20;;;;;;5013210;28;20699;-65
2024/03/20 06:19:01;;;;;;;1.70;1.60;;;19.20;86.10;;;;;;5012922;28;20211;-69
2024/03/20 06:21:28;;;;;;;1.60;1.50;;;19.30;86.30;;;;;;5008974;28;20218;-69
2024/03/20 06:23:55;;;;;;;1.88;1.55;;;19.30;86.40;;;;;;5008429;28;20207;-69
2024/03/20 06:26:20;;;;;;;1.50;1.15;;;19.20;86.30;;;;;;5008569;28;20199;-68
2024/03/20 06:28:47;;;;;;;2.10;1.63;;;19.30;86.40;;;;;;5007684;28;20196;-68
2024/03/20 06:31:13;;;;;;;2.00;1.33;;;19.20;86.40;;;;;;5009173;28;20560;-66
2024/03/20 06:33:39;;;;;;;1.80;1.20;;;19.20;86.50;;;;;;5013036;28;20199;-69
2024/03/20 06:36:06;;;;;;;1.73;1.48;;;19.20;86.60;;;;;;5013202;28;20229;-71
2024/03/20 06:38:34;;;;;;;1.95;1.70;;;19.20;86.60;;;;;;5009071;28;20191;-66
2024/03/20 06:41:03;;;;;;;1.88;1.67;;;19.20;86.60;;;;;;5014153;28;20226;-66
2024/03/20 06:43:34;;;;;;;2.50;1.80;;;19.20;86.70;;;;;;5013895;28;20238;-66
2024/03/20 06:46:00;;;;;;;2.15;1.95;;;19.10;86.60;;;;;;5014642;28;20266;-69
2024/03/20 06:48:28;;;;;;;1.80;1.50;;;19.10;86.70;;;;;;5015037;28;20291;-66
2024/03/20 06:50:54;;;;;;;1.20;1.10;;;19.10;86.70;;;;;;5014951;28;20469;-68
2024/03/20 06:53:20;;;;;;;1.70;1.10;;;19.10;86.80;;;;;;5015356;28;20606;-67
2024/03/20 06:55:50;;;;;;;1.50;1.33;;;19.10;87.00;;;;;;5014624;28;21233;-71
2024/03/20 06:58:17;;;;;;;1.88;1.40;;;19.10;87.20;;;;;;5012881;28;20734;-70
2024/03/20 07:00:46;;;;;;;1.85;1.30;;;19.10;87.20;;;;;;5010891;28;20659;-67
2024/03/20 07:03:13;;;;;;;1.40;1.30;;;19.20;87.20;;;;;;5010161;28;20231;-68
2024/03/20 07:05:39;;;;;;;1.30;1.20;;;19.20;87.00;;;;;;5009277;28;20207;-68
2024/03/20 07:08:09;;;;;;;1.50;1.40;;;19.30;86.80;;;;;;5011909;28;20698;-68
2024/03/20 07:10:35;;;;;;;1.75;1.55;;;19.30;86.60;;;;;;5009951;28;20833;-72
2024/03/20 07:13:04;;;;;;;1.67;1.33;;;19.40;86.50;;;;;;5015078;28;20223;-69
2024/03/20 07:15:30;;;;;;;1.42;1.27;;;19.40;86.30;;;;;;5009276;28;20231;-69
2024/03/20 07:17:57;;;;;;;2.08;1.40;;;19.50;86.00;;;;;;5010230;28;20203;-69
2024/03/20 07:20:24;;;;;;;1.90;1.48;;;19.50;85.90;;;;;;5007516;28;20550;-67
2024/03/20 07:22:52;;;;;;;1.75;1.65;;;19.50;86.00;;;;;;5006052;28;20196;-68
2024/03/20 07:25:18;;;;;;;1.58;1.48;;;19.50;86.00;;;;;;5007894;28;20200;-66
2024/03/20 07:27:45;;;;;;;1.58;1.33;;;19.50;85.90;;;;;;5009422;28;20206;-71
2024/03/20 07:30:12;;;;;;;1.30;1.08;;;19.50;85.80;;;;;;5008200;28;20200;-72
2024/03/20 07:32:40;;;;;;;1.30;1.20;;;19.50;85.70;;;;;;5008217;28;20203;-67
2024/03/20 07:35:06;;;;;;;1.40;1.30;;;19.60;85.70;;;;;;5008305;28;20199;-69
2024/03/20 07:37:33;;;;;;;1.70;1.25;;;19.60;85.70;;;;;;5008627;28;20203;-68
2024/03/20 07:39:59;;;;;;;1.40;1.30;;;19.80;85.60;;;;;;5006593;28;20310;-68
2024/03/20 07:42:27;;;;;;;1.50;1.30;;;19.90;85.00;;;;;;5007553;28;20643;-68
2024/03/20 07:44:56;;;;;;;1.48;1.30;;;20.10;84.40;;;;;;5003136;28;20282;-68
2024/03/20 07:47:25;;;;;;;1.25;1.10;;;20.20;84.00;;;;;;5001803;28;20678;-70
2024/03/20 07:49:51;;;;;;;1.45;1.35;;;20.20;83.40;;;;;;5006410;28;20371;-72
2024/03/20 07:52:17;;;;;;;2.40;1.20;;;20.30;83.40;;;;;;5002823;28;20196;-70
2024/03/20 07:54:43;;;;;;;1.95;1.10;;;20.50;83.90;;;;;;5005608;28;20463;-71
2024/03/20 07:57:10;;;;;;;3.10;1.50;;;20.60;83.70;;;;;;5008043;28;20223;-73
2024/03/20 07:59:36;;;;;;;2.37;2.17;;;20.70;83.50;;;;;;5004044;28;20203;-69
2024/03/20 08:02:03;;;;;;;5.10;1.50;;;20.80;83.30;;;;;;5005810;28;20454;-70
2024/03/20 08:04:30;;;;;;;2.80;1.30;;;20.70;84.70;;;;;;5007287;28;20469;-73
2024/03/20 08:06:57;;;;;;;1.20;1.00;;;20.90;85.30;;;;;;5008053;28;20837;-71
2024/03/20 08:09:23;;;;;;;1.40;1.30;;;21.00;84.50;;;;;;5009631;28;20459;-71
2024/03/20 08:11:50;;;;;;;1.77;1.20;;;21.00;84.40;;;;;;5003762;28;20461;-72
2024/03/20 08:14:16;;;;;;;2.20;1.50;;;21.00;84.20;;;;;;5007329;28;20458;-70
2024/03/20 08:16:43;;;;;;;3.33;1.30;;;21.00;84.10;;;;;;5010725;28;20482;-70
2024/03/20 08:19:09;;;;;;;1.50;1.40;;;21.00;84.20;;;;;;5006033;28;20470;-67
2024/03/20 08:21:37;;;;;;;1.47;1.17;;;21.10;84.30;;;;;;5007536;28;20458;-69
2024/03/20 08:24:05;;;;;;;1.50;1.27;;;21.20;83.90;;;;;;5005090;28;20374;-68
2024/03/20 08:26:31;;;;;;;1.40;1.10;;;21.40;84.30;;;;;;5008103;28;21022;-70
2024/03/20 08:28:57;;;;;;;1.20;1.10;;;21.40;84.30;;;;;;5003076;28;20466;-69
2024/03/20 08:31:24;;;;;;;1.20;1.10;;;21.50;84.80;;;;;;5008633;28;20454;-73
2024/03/20 08:33:50;;;;;;;1.30;1.10;;;21.60;85.40;;;;;;5004898;28;20303;-72
2024/03/20 08:36:16;;;;;;;1.50;1.30;;;21.50;84.70;;;;;;5004900;28;20482;-72
2024/03/20 08:38:45;;;;;;;1.30;1.10;;;21.60;85.50;;;;;;5009039;28;20204;-71
2024/03/20 08:41:13;;;;;;;1.40;1.10;;;21.70;85.70;;;;;;5007452;28;20853;-70
2024/03/20 08:43:39;;;;;;;1.40;1.30;;;21.90;85.90;;;;;;5003799;28;20466;-72
2024/03/20 08:46:08;;;;;;;2.40;1.07;;;21.90;83.20;;;;;;5004241;28;20462;-71
2024/03/20 08:48:34;;;;;;;1.60;1.37;;;22.00;77.30;;;;;;5004387;28;20545;-69
2024/03/20 08:51:01;;;;;;;1.40;1.23;;;22.00;76.90;;;;;;5006542;28;21053;-72
2024/03/20 08:53:27;;;;;;;1.40;1.30;;;22.00;76.30;;;;;;5005413;28;20499;-71
2024/03/20 08:55:55;;;;;;;1.53;1.33;;;22.00;76.50;;;;;;5008778;28;20489;-70
2024/03/20 08:58:21;;;;;;;1.50;1.20;;;22.10;76.30;;;;;;5008618;28;20461;-72
2024/03/20 09:00:48;;;;;;;1.60;1.33;;;22.20;76.20;;;;;;5006145;28;20454;-71
2024/03/20 09:03:13;;;;;;;1.10;0.90;;;22.20;75.80;;;;;;5000453;28;20203;-72
2024/03/20 09:05:41;;;;;;;1.40;1.20;;;22.20;75.70;;;;;;5007744;28;20447;-73
2024/03/20 09:08:08;;;;;;;1.40;1.30;;;22.30;75.40;;;;;;5000370;28;20294;-72
2024/03/20 09:10:35;;;;;;;1.10;1.00;;;22.30;75.20;;;;;;5003429;28;23003;-72
2024/03/20 09:13:02;;;;;;;1.20;0.93;;;22.40;82.90;;;;;;5005692;28;20547;-69
2024/03/20 09:15:28;;;;;;;1.97;1.30;;;22.40;82.00;;;;;;5005777;28;20468;-70
2024/03/20 09:17:54;;;;;;;1.60;1.33;;;22.40;83.30;;;;;;5004572;28;20470;-72
2024/03/20 09:20:24;;;;;;;1.60;1.40;;;22.50;83.30;;;;;;5002192;28;20467;-70
2024/03/20 09:22:51;;;;;;;1.20;1.10;;;22.40;81.20;;;;;;5004974;28;20282;-69
2024/03/20 09:25:20;;;;;;;1.30;1.10;;;22.50;82.60;;;;;;5008569;28;20454;-71
2024/03/20 09:27:46;;;;;;;1.50;1.40;;;22.60;86.70;;;;;;5006457;28;20470;-69
2024/03/20 09:30:15;;;;;;;1.33;1.23;;;22.90;86.40;;;;;;5006997;28;20442;-71
2024/03/20 09:32:41;;;;;;;1.30;1.10;;;22.70;86.90;;;;;;5006917;28;20458;-72
2024/03/20 09:35:10;;;;;;;1.47;1.23;;;22.90;72.90;;;;;;4995140;28;20461;-73
2024/03/20 09:37:36;;;;;;;1.20;1.07;;;23.00;72.60;;;;;;5004145;28;20486;-69
2024/03/20 09:40:06;;;;;;;1.33;1.23;;;22.90;77.80;;;;;;5002736;28;20877;-71
2024/03/20 09:42:32;;;;;;;2.00;1.80;;;23.10;72.30;;;;;;4995232;28;20509;-70
2024/03/20 09:45:00;;;;;;;1.43;1.33;;;23.10;71.80;;;;;;5000811;28;20454;-73
2024/03/20 09:47:27;;;;;;;3.30;1.27;;;23.20;71.70;;;;;;5005893;28;20465;-71
2024/03/20 09:49:57;;;;;;;2.93;1.30;;;23.20;71.70;;;;;;5002265;28;20484;-70
2024/03/20 09:52:24;;;;;;;1.20;0.93;;;23.20;71.60;;;;;;5005013;28;20581;-70
2024/03/20 09:54:51;;;;;;;1.87;1.53;;;23.20;71.50;;;;;;5008107;28;20525;-70
2024/03/20 09:57:17;;;;;;;1.83;1.60;;;23.20;70.60;;;;;;5010220;28;20983;-69
2024/03/20 09:59:49;;;;;;;1.30;1.20;;;23.20;70.10;;;;;;5009826;28;20537;-69
2024/03/20 10:02:15;;;;;;;1.40;1.17;;;23.30;70.40;;;;;;5000759;28;20452;-68
2024/03/20 10:04:43;;;;;;;1.40;1.30;;;23.10;70.90;;;;;;5000421;28;21139;-71
2024/03/20 10:07:13;;;;;;;1.53;1.40;;;23.00;71.70;;;;;;5006405;28;20553;-69
2024/03/20 10:09:40;;;;;;;1.83;1.20;;;23.00;72.30;;;;;;5009254;28;20449;-71
2024/03/20 10:12:07;;;;;;;1.60;1.50;;;23.00;72.40;;;;;;5007579;28;22317;-70
2024/03/20 10:14:35;;;;;;;1.53;1.43;;;23.10;72.50;;;;;;5011370;28;21387;-68
2024/03/20 10:17:11;;;;;;;3.27;1.43;;;23.10;72.50;;;;;;5008594;28;21028;-71
2024/03/20 10:19:37;;;;;;;1.53;1.43;;;23.10;72.40;;;;;;5011024;28;20450;-67
2024/03/20 10:22:05;;;;;;;1.50;1.10;;;23.20;72.60;;;;;;5009102;28;20484;-71
2024/03/20 10:24:32;;;;;;;3.87;2.13;;;23.20;72.60;;;;;;5010458;28;20457;-68
2024/03/20 10:26:58;;;;;;;1.60;1.23;;;23.30;72.60;;;;;;5005700;28;20469;-71
2024/03/20 10:29:26;;;;;;;1.80;1.40;;;23.30;72.40;;;;;;5008932;28;20826;-70
2024/03/20 10:31:53;;;;;;;1.50;1.20;;;23.40;72.50;;;;;;5011970;28;20789;-70
2024/03/20 10:34:23;;;;;;;1.67;1.43;;;23.40;72.30;;;;;;5009070;28;20471;-71
2024/03/20 10:36:49;;;;;;;1.40;1.30;;;23.40;72.20;;;;;;5010377;28;20469;-70
2024/03/20 10:39:18;;;;;;;1.87;1.10;;;23.50;72.20;;;;;;4999398;28;20451;-70
2024/03/20 10:41:46;;;;;;;1.87;1.40;;;23.50;72.30;;;;;;5009720;28;20462;-70
2024/03/20 10:44:17;;;;;;;1.23;1.03;;;23.50;72.00;;;;;;5009060;28;20456;-73
2024/03/20 10:46:45;;;;;;;1.40;1.30;;;23.50;72.00;;;;;;5004278;28;20557;-69
2024/03/20 10:49:17;;;;;;;1.40;1.23;;;23.50;71.90;;;;;;5008619;28;21401;-68
2024/03/20 10:51:43;;;;;;;1.23;1.13;;;23.60;72.00;;;;;;5011545;28;20821;-71
2024/03/20 10:54:12;;;;;;;1.37;1.27;;;23.60;72.00;;;;;;5009555;28;20971;-70
2024/03/20 10:56:44;;;;;;;1.50;1.20;;;23.60;71.90;;;;;;5008555;28;20484;-71
2024/03/20 10:59:15;;;;;;;1.30;1.17;;;23.60;71.70;;;;;;5005049;28;20447;-72
2024/03/20 11:01:55;;;;;;;1.67;1.57;;;23.70;71.90;;;;;;5008137;28;21081;-69
2024/03/20 11:04:32;;;;;;;1.53;1.27;;;23.70;71.60;;;;;;5006405;28;20581;-70
2024/03/20 11:06:58;;;;;;;1.83;1.27;;;23.80;71.70;;;;;;4999590;28;20469;-70
2024/03/20 11:09:26;;;;;;;1.70;1.43;;;23.80;71.60;;;;;;5008979;28;20495;-70
2024/03/20 11:11:55;;;;;;;1.50;1.17;;;23.80;71.40;;;;;;5006825;28;20619;-68
2024/03/20 11:14:29;;;;;;;1.07;0.87;;;23.80;71.40;;;;;;5006071;28;20543;-70
2024/03/20 11:17:01;;;;;;;1.13;1.00;;;23.80;71.40;;;;;;5006636;28;20575;-71
2024/03/20 11:19:28;;;;;;;1.43;1.27;;;23.90;71.40;;;;;;5006293;28;20457;-67
2024/03/20 11:21:55;;;;;;;1.30;1.20;;;23.90;71.50;;;;;;5004913;28;20459;-69
2024/03/20 11:24:23;;;;;;;1.37;1.20;;;23.90;71.40;;;;;;5001512;28;20459;-70
2024/03/20 11:26:49;;;;;;;3.53;1.27;;;23.90;71.40;;;;;;5007361;28;21042;-71
2024/03/20 11:29:17;;;;;;;1.40;1.10;;;23.90;71.50;;;;;;5002713;28;20447;-72
2024/03/20 11:31:43;;;;;;;1.20;1.00;;;23.90;75.80;;;;;;5005985;28;20752;-69
2024/03/20 11:34:09;;;;;;;1.20;1.10;;;23.60;78.20;;;;;;5007902;28;20448;-69
2024/03/20 11:36:35;;;;;;;1.87;1.20;;;24.00;80.30;;;;;;5003914;28;20217;-68
2024/03/20 11:39:06;;;;;;;1.63;1.30;;;24.00;80.10;;;;;;5007011;28;20564;-70
2024/03/20 11:41:32;;;;;;;1.20;1.10;;;24.00;71.80;;;;;;5006410;28;20196;-70
2024/03/20 11:44:00;;;;;;;1.30;0.97;;;24.00;71.20;;;;;;5008659;28;20454;-69
2024/03/20 11:46:28;;;;;;;1.50;1.40;;;24.00;71.10;;;;;;5006190;28;20200;-68
2024/03/20 11:48:55;;;;;;;1.30;1.20;;;24.00;71.00;;;;;;5010529;28;20962;-71
2024/03/20 11:51:22;;;;;;;2.30;1.27;;;24.00;71.00;;;;;;5006601;28;20971;-69
2024/03/20 11:53:49;;;;;;;2.60;1.43;;;24.00;70.90;;;;;;5007863;28;20452;-71
2024/03/20 11:56:16;;;;;;;1.93;1.30;;;24.00;70.90;;;;;;5009492;28;20569;-71
2024/03/20 11:58:43;;;;;;;1.40;1.30;;;24.00;70.80;;;;;;5010348;28;20481;-70
2024/03/20 12:01:11;;;;;;;1.23;1.10;;;24.10;70.80;;;;;;5005278;28;20581;-71
2024/03/20 12:03:40;;;;;;;1.40;1.20;;;24.00;70.60;;;;;;5003567;28;20458;-70
2024/03/20 12:06:10;;;;;;;2.60;1.83;;;24.10;70.70;;;;;;5005075;28;21106;-75
2024/03/20 12:08:36;;;;;;;1.43;1.30;;;24.10;70.70;;;;;;5009872;28;20459;-77
2024/03/20 12:11:18;;;;;;;1.20;1.10;;;24.00;69.70;;;;;;5009490;28;21568;-76
2024/03/20 12:13:46;;;;;;;1.33;1.00;;;24.00;69.60;;;;;;5012646;28;20488;-78
2024/03/20 12:16:11;;;;;;;1.90;1.30;;;24.10;73.60;;;;;;5012363;28;20586;-75
2024/03/20 12:18:40;;;;;;;1.20;1.10;;;24.20;73.10;;;;;;5008425;28;20454;-75
2024/03/20 12:21:12;;;;;;;1.40;1.20;;;23.90;72.40;;;;;;5010841;28;21200;-75
2024/03/20 12:23:38;;;;;;;7.80;1.47;;;24.00;72.30;;;;;;5007878;28;20455;-72
2024/03/20 12:26:06;;;;;;;1.63;1.30;;;24.00;72.30;;;;;;5006353;28;20471;-76
2024/03/20 12:28:33;;;;;;;1.50;1.40;;;23.90;71.70;;;;;;5005937;28;20540;-73
2024/03/20 12:30:59;;;;;;;1.80;1.60;;;24.00;71.80;;;;;;5011181;28;20463;-76
2024/03/20 12:33:26;;;;;;;1.87;1.50;;;24.00;71.60;;;;;;5008160;28;20555;-72
2024/03/20 12:35:53;;;;;;;1.80;1.40;;;23.90;71.40;;;;;;5006988;28;20463;-76
2024/03/20 12:38:19;;;;;;;1.40;1.20;;;23.90;71.40;;;;;;5008292;28;20490;-78
2024/03/20 12:40:46;;;;;;;3.07;1.30;;;24.00;71.40;;;;;;5007817;28;21384;-77
2024/03/20 12:43:14;;;;;;;1.43;1.20;;;24.00;71.30;;;;;;5008084;28;20442;-75
2024/03/20 12:45:40;;;;;;;1.50;1.20;;;24.00;71.20;;;;;;5007733;28;20807;-76
2024/03/20 12:48:12;;;;;;;1.70;1.60;;;24.00;71.30;;;;;;5005481;28;20462;-76